Time;durP1;ratioP1;P1;durP2;ratioP2;P2;SDS_P1;SDS_P2;PMS_P1;PMS_P2;Temp;Humidity;BMP_temperature;BMP_pressure;BME280_temperature;BME280_humidity;BME280_pressure;Samples;Min_cycle;Max_cycle;Signal;HPM_P1;HPM_P2
2022/03/17 00:02:16;;;;;;;18.63;10.75;;;10.60;99.90;;;;;;6251672;22;20012;-90
2022/03/17 00:04:43;;;;;;;15.45;9.20;;;10.60;99.90;;;;;;6225344;22;20465;-91
2022/03/17 00:07:10;;;;;;;17.73;9.82;;;10.60;99.90;;;;;;6250750;22;20442;-91
2022/03/17 00:09:37;;;;;;;25.67;10.05;;;10.60;99.90;;;;;;6225900;22;20024;-91
2022/03/17 00:12:05;;;;;;;17.52;9.98;;;10.60;99.90;;;;;;6225120;22;20490;-92
2022/03/17 00:14:32;;;;;;;16.77;9.32;;;10.60;99.90;;;;;;6226428;22;20050;-91
2022/03/17 00:16:59;;;;;;;19.30;10.75;;;10.60;99.90;;;;;;6250376;22;20070;-93
2022/03/17 00:19:26;;;;;;;18.75;9.98;;;10.60;99.90;;;;;;6250782;22;20048;-90
2022/03/17 00:21:53;;;;;;;17.77;11.07;;;10.60;99.90;;;;;;6226051;22;20016;-91
2022/03/17 00:24:20;;;;;;;16.70;9.52;;;10.60;99.90;;;;;;6226706;22;20166;-91
2022/03/17 00:26:47;;;;;;;18.40;9.55;;;10.60;99.90;;;;;;6233416;22;20079;-90
2022/03/17 00:29:15;;;;;;;19.50;10.63;;;10.60;99.90;;;;;;6256418;22;20439;-91
2022/03/17 00:31:42;;;;;;;18.42;10.65;;;10.60;99.90;;;;;;6250331;22;20015;-90
2022/03/17 00:34:09;;;;;;;21.48;11.02;;;10.60;99.90;;;;;;6250900;22;20019;-91
2022/03/17 00:36:36;;;;;;;23.38;11.57;;;10.60;99.90;;;;;;6251298;22;20011;-91
2022/03/17 00:39:05;;;;;;;15.50;9.70;;;10.60;99.90;;;;;;6225609;22;20011;-91
2022/03/17 00:41:32;;;;;;;20.25;10.40;;;10.60;99.90;;;;;;6224932;22;20069;-90
2022/03/17 00:44:00;;;;;;;20.08;10.90;;;10.60;99.90;;;;;;6225275;22;20016;-90
2022/03/17 00:46:27;;;;;;;20.80;11.05;;;10.60;99.90;;;;;;6225034;22;20466;-90
2022/03/17 00:48:54;;;;;;;17.52;10.02;;;10.60;99.90;;;;;;6226011;22;20099;-91
2022/03/17 00:51:21;;;;;;;23.05;12.13;;;10.60;99.90;;;;;;6277016;22;20095;-91
2022/03/17 00:53:48;;;;;;;21.65;11.35;;;10.60;99.90;;;;;;6250337;22;20024;-91
2022/03/17 00:56:15;;;;;;;21.35;11.82;;;10.60;99.90;;;;;;6225030;22;20126;-91
2022/03/17 00:58:45;;;;;;;21.95;12.68;;;10.60;99.90;;;;;;6250218;22;20016;-91
2022/03/17 01:01:16;;;;;;;23.75;12.27;;;10.60;99.90;;;;;;6250134;22;20023;-91
2022/03/17 01:03:45;;;;;;;20.20;11.52;;;10.60;99.90;;;;;;6225886;22;20391;-90
2022/03/17 01:06:13;;;;;;;20.85;12.23;;;10.60;99.90;;;;;;6225301;22;20019;-90
2022/03/17 01:08:40;;;;;;;20.58;11.80;;;10.60;99.90;;;;;;6225348;22;20023;-91
2022/03/17 01:11:07;;;;;;;23.70;13.05;;;10.60;99.90;;;;;;6225550;22;20026;-89
2022/03/17 01:13:34;;;;;;;18.40;11.52;;;10.60;99.90;;;;;;6250551;22;20057;-91
2022/03/17 01:16:01;;;;;;;21.77;10.68;;;10.60;99.90;;;;;;6226232;22;20458;-92
2022/03/17 01:18:29;;;;;;;21.45;12.48;;;10.50;99.90;;;;;;6251707;22;20019;-91
2022/03/17 01:20:57;;;;;;;18.52;11.95;;;10.50;99.90;;;;;;6225538;22;20023;-90
2022/03/17 01:23:25;;;;;;;21.23;11.95;;;10.50;99.90;;;;;;6224823;22;20069;-89
2022/03/17 01:25:52;;;;;;;21.40;12.82;;;10.40;99.90;;;;;;6225136;22;20114;-91
2022/03/17 01:28:19;;;;;;;20.40;11.32;;;10.40;99.90;;;;;;6225211;22;20031;-90
2022/03/17 01:30:46;;;;;;;21.75;12.35;;;10.40;99.90;;;;;;6224832;22;20047;-89
2022/03/17 01:33:13;;;;;;;33.00;12.85;;;10.40;99.90;;;;;;6249418;22;20024;-90
2022/03/17 01:35:40;;;;;;;26.80;13.45;;;10.40;99.90;;;;;;6224692;22;20406;-91
2022/03/17 01:38:07;;;;;;;24.30;13.35;;;10.30;99.90;;;;;;6250157;22;20054;-90
2022/03/17 01:40:34;;;;;;;26.63;14.13;;;10.30;99.90;;;;;;6276904;22;20070;-89
2022/03/17 01:43:02;;;;;;;23.55;13.45;;;10.30;99.90;;;;;;6250187;22;20012;-90
2022/03/17 01:45:29;;;;;;;29.40;13.15;;;10.30;99.90;;;;;;6249746;22;20026;-91
2022/03/17 01:47:57;;;;;;;26.02;13.95;;;10.20;99.90;;;;;;6224463;22;20027;-90
2022/03/17 01:50:24;;;;;;;22.15;12.55;;;10.20;99.90;;;;;;6249973;22;20054;-92
2022/03/17 01:52:51;;;;;;;28.23;13.02;;;10.20;99.90;;;;;;6249592;22;20030;-91
2022/03/17 01:55:18;;;;;;;23.73;13.68;;;10.20;99.90;;;;;;6224605;22;20023;-91
2022/03/17 01:57:46;;;;;;;23.02;14.20;;;10.20;99.90;;;;;;6249976;22;20035;-90
2022/03/17 02:00:17;;;;;;;25.95;13.70;;;10.20;99.90;;;;;;6249838;22;20020;-90
2022/03/17 02:02:50;;;;;;;28.70;13.68;;;10.10;99.90;;;;;;6250226;22;20050;-90
2022/03/17 02:05:18;;;;;;;28.67;13.75;;;10.10;99.90;;;;;;6225085;22;20062;-90
2022/03/17 02:10:17;;;;;;;25.13;12.93;;;10.10;99.90;;;;;;6249918;22;20019;-90
2022/03/17 02:15:32;;;;;;;21.02;12.07;;;10.10;99.90;;;;;;6250703;22;20024;-91
2022/03/17 02:18:06;;;;;;;25.45;13.55;;;10.00;99.90;;;;;;6276977;22;20019;-92
2022/03/17 02:20:35;;;;;;;28.67;14.52;;;10.10;99.90;;;;;;6225062;22;20016;-92
2022/03/17 02:26:04;;;;;;;29.50;14.82;;;10.10;99.90;;;;;;6250536;22;20016;-90
2022/03/17 02:28:32;;;;;;;16.63;10.15;;;10.00;99.90;;;;;;6227861;22;20023;-89
2022/03/17 02:31:01;;;;;;;17.90;10.70;;;9.90;99.90;;;;;;6227387;22;20082;-92
2022/03/17 02:33:29;;;;;;;18.10;9.80;;;9.90;99.90;;;;;;6278981;22;20027;-90
2022/03/17 02:35:57;;;;;;;18.55;8.75;;;10.00;99.90;;;;;;6227472;22;20030;-89
2022/03/17 02:38:24;;;;;;;16.77;8.70;;;10.00;99.90;;;;;;6279170;22;20382;-91
2022/03/17 02:40:52;;;;;;;12.82;7.03;;;10.00;99.90;;;;;;6252402;22;20039;-88
2022/03/17 02:43:20;;;;;;;15.85;6.60;;;10.00;99.90;;;;;;6226564;22;20020;-90
2022/03/17 02:45:48;;;;;;;15.32;8.13;;;9.90;99.90;;;;;;6227075;22;20020;-92
2022/03/17 02:48:16;;;;;;;10.25;6.22;;;9.80;99.90;;;;;;6279626;22;20026;-92
2022/03/17 02:50:44;;;;;;;15.80;7.32;;;9.90;99.90;;;;;;6227487;22;20023;-90
2022/03/17 02:53:11;;;;;;;11.52;5.20;;;9.90;99.90;;;;;;6226957;22;20015;-90
2022/03/17 02:55:41;;;;;;;10.73;5.30;;;9.90;99.90;;;;;;6252184;22;20442;-90
2022/03/17 02:58:10;;;;;;;11.07;4.10;;;9.90;99.90;;;;;;6226880;22;20504;-91
2022/03/17 03:00:38;;;;;;;8.32;4.97;;;9.90;99.90;;;;;;6252527;22;20046;-91
2022/03/17 03:03:07;;;;;;;10.82;4.45;;;9.90;99.90;;;;;;6226808;22;20019;-92
2022/03/17 03:05:35;;;;;;;12.93;4.18;;;9.90;99.90;;;;;;6252527;22;20026;-90
2022/03/17 03:08:02;;;;;;;10.27;4.20;;;9.90;99.90;;;;;;6251890;22;20024;-92
2022/03/17 03:10:30;;;;;;;12.30;3.35;;;9.80;99.90;;;;;;6252190;22;20031;-92
2022/03/17 03:12:59;;;;;;;5.78;3.38;;;9.70;99.90;;;;;;6279037;22;20346;-90
2022/03/17 03:15:26;;;;;;;13.02;3.65;;;9.70;99.90;;;;;;6227468;22;20070;-90
2022/03/17 03:17:54;;;;;;;7.93;3.22;;;9.70;99.90;;;;;;6279303;22;20019;-92
2022/03/17 03:20:22;;;;;;;8.98;3.40;;;9.70;99.90;;;;;;6227367;22;20022;-90
2022/03/17 03:22:50;;;;;;;11.77;3.88;;;9.70;99.90;;;;;;6251513;22;20454;-91
2022/03/17 03:25:17;;;;;;;8.02;2.40;;;9.70;99.90;;;;;;6227176;22;20012;-92
2022/03/17 03:27:44;;;;;;;5.80;2.65;;;9.60;99.90;;;;;;6251782;22;20026;-91
2022/03/17 03:30:13;;;;;;;11.88;3.33;;;9.60;99.90;;;;;;6226979;22;20069;-92
2022/03/17 03:32:42;;;;;;;10.18;2.97;;;9.60;99.90;;;;;;6226955;22;20027;-91
2022/03/17 03:37:55;;;;;;;12.05;3.30;;;9.60;99.90;;;;;;6251323;22;20015;-90
2022/03/17 03:40:23;;;;;;;13.85;3.15;;;9.60;99.90;;;;;;6251638;22;20054;-92
2022/03/17 03:42:50;;;;;;;10.70;3.10;;;9.50;99.90;;;;;;6278704;22;20106;-90
2022/03/17 03:45:18;;;;;;;8.98;2.72;;;9.50;99.90;;;;;;6278608;22;20367;-90
2022/03/17 03:47:45;;;;;;;10.57;3.25;;;9.50;99.90;;;;;;6226237;22;20016;-93
2022/03/17 03:50:12;;;;;;;11.30;2.67;;;9.50;99.90;;;;;;6251508;22;20020;-91
2022/03/17 03:52:39;;;;;;;10.43;2.15;;;9.50;99.90;;;;;;6225922;22;20043;-90
2022/03/17 03:55:07;;;;;;;10.18;2.55;;;9.50;99.90;;;;;;6227453;22;20026;-91
2022/03/17 03:57:34;;;;;;;7.57;2.17;;;9.40;99.90;;;;;;6251769;22;20541;-92
2022/03/17 04:00:02;;;;;;;5.38;2.45;;;9.50;99.90;;;;;;6226527;22;20024;-92
2022/03/17 04:02:40;;;;;;;12.02;2.22;;;9.40;99.90;;;;;;6252755;22;20058;-90
2022/03/17 04:05:08;;;;;;;9.20;2.22;;;9.40;99.90;;;;;;6251145;22;20012;-92
2022/03/17 04:07:35;;;;;;;5.60;1.88;;;9.40;99.90;;;;;;6225992;22;20020;-91
2022/03/17 04:10:02;;;;;;;17.08;2.83;;;9.40;99.90;;;;;;6226683;22;20021;-91
2022/03/17 04:12:29;;;;;;;9.07;2.53;;;9.30;99.90;;;;;;6250087;22;20015;-90
2022/03/17 04:14:56;;;;;;;9.07;2.40;;;9.30;99.90;;;;;;6250875;22;20106;-91
2022/03/17 04:17:23;;;;;;;10.75;2.28;;;9.30;99.90;;;;;;6250971;22;20102;-91
2022/03/17 04:19:50;;;;;;;9.43;1.73;;;9.30;99.90;;;;;;6250966;22;20031;-91
2022/03/17 04:22:17;;;;;;;9.63;1.55;;;9.30;99.90;;;;;;6225318;22;20030;-91
2022/03/17 04:24:44;;;;;;;7.30;1.92;;;9.30;99.90;;;;;;6225515;22;20147;-92
2022/03/17 04:27:11;;;;;;;11.82;1.58;;;9.30;99.90;;;;;;6251362;22;20035;-92
2022/03/17 04:29:38;;;;;;;3.97;1.33;;;9.20;99.90;;;;;;6251315;22;20061;-91
2022/03/17 04:32:05;;;;;;;6.85;1.70;;;9.20;99.90;;;;;;6227815;22;20028;-93
2022/03/17 04:34:34;;;;;;;12.98;1.75;;;9.20;99.90;;;;;;6203962;22;20022;-92
2022/03/17 04:37:29;;;;;;;16.58;2.53;;;9.20;99.90;;;;;;6231479;22;20027;-93
2022/03/17 04:40:05;;;;;;;15.15;2.55;;;9.30;99.90;;;;;;6228761;22;20343;-92
2022/03/17 04:42:41;;;;;;;11.07;2.70;;;9.20;99.90;;;;;;6253298;22;20020;-92
2022/03/17 04:45:11;;;;;;;10.45;2.35;;;9.20;99.90;;;;;;6229046;22;20095;-92
2022/03/17 04:47:39;;;;;;;14.63;2.28;;;9.10;99.90;;;;;;6251274;22;20411;-91
2022/03/17 04:50:07;;;;;;;7.75;1.80;;;9.10;99.90;;;;;;6250167;22;20023;-91
2022/03/17 04:55:21;;;;;;;9.40;1.85;;;9.10;99.90;;;;;;6250099;22;20054;-91
2022/03/17 04:57:50;;;;;;;10.27;2.55;;;9.10;99.90;;;;;;6249636;22;20081;-90
2022/03/17 05:00:17;;;;;;;8.30;1.92;;;9.10;99.90;;;;;;6252119;22;20398;-91
2022/03/17 05:02:44;;;;;;;7.05;1.65;;;9.10;99.90;;;;;;6225281;22;20028;-91
2022/03/17 05:05:15;;;;;;;15.70;2.05;;;9.10;99.90;;;;;;6225310;22;20099;-91
2022/03/17 05:07:50;;;;;;;4.60;1.50;;;9.00;99.90;;;;;;6251273;22;20020;-90
2022/03/17 05:10:17;;;;;;;12.27;1.55;;;9.00;99.90;;;;;;6251117;22;20020;-88
2022/03/17 05:12:45;;;;;;;10.07;1.42;;;8.90;99.90;;;;;;6278111;22;20354;-93
2022/03/17 05:15:18;;;;;;;11.85;1.98;;;9.00;99.90;;;;;;6227351;22;20024;-90
2022/03/17 05:17:47;;;;;;;9.18;1.90;;;9.00;99.90;;;;;;6250601;22;20019;-90
2022/03/17 05:20:18;;;;;;;7.68;1.40;;;9.00;99.90;;;;;;6251505;22;20081;-91
2022/03/17 05:22:45;;;;;;;8.25;1.67;;;8.90;99.90;;;;;;6224629;22;20102;-91
2022/03/17 05:25:12;;;;;;;6.05;1.23;;;8.90;99.90;;;;;;6250476;22;20011;-92
2022/03/17 05:27:41;;;;;;;4.60;1.48;;;8.90;99.90;;;;;;6250735;22;20042;-92
2022/03/17 05:30:10;;;;;;;11.07;1.90;;;8.90;99.90;;;;;;6225407;22;20025;-91
2022/03/17 05:32:37;;;;;;;7.82;1.13;;;8.80;99.90;;;;;;6249765;22;20062;-91
2022/03/17 05:35:05;;;;;;;5.28;1.63;;;8.90;99.90;;;;;;6224694;22;20026;-91
2022/03/17 05:37:32;;;;;;;12.05;1.65;;;8.90;99.90;;;;;;6249713;22;20020;-88
2022/03/17 05:39:59;;;;;;;9.07;1.25;;;8.80;99.90;;;;;;6249933;22;20137;-90
2022/03/17 05:42:28;;;;;;;12.90;1.17;;;8.80;99.90;;;;;;6276234;22;20043;-89
2022/03/17 05:44:57;;;;;;;3.22;1.27;;;8.80;99.90;;;;;;6250047;22;20402;-92
2022/03/17 05:47:24;;;;;;;9.65;2.55;;;8.70;99.90;;;;;;6224749;22;20019;-90
2022/03/17 05:49:51;;;;;;;13.65;1.58;;;8.80;99.90;;;;;;6224577;22;20062;-89
2022/03/17 05:52:18;;;;;;;12.80;2.13;;;8.80;99.90;;;;;;6225274;22;20032;-90
2022/03/17 05:54:44;;;;;;;16.67;2.72;;;8.70;99.90;;;;;;6224809;22;20093;-90
2022/03/17 05:57:12;;;;;;;11.20;2.10;;;8.70;99.90;;;;;;6277106;22;20020;-91
2022/03/17 05:59:40;;;;;;;9.65;1.45;;;8.70;99.90;;;;;;6277025;22;20038;-92
2022/03/17 06:02:07;;;;;;;7.97;1.95;;;8.70;99.90;;;;;;6225019;22;20073;-94
2022/03/17 06:04:43;;;;;;;11.85;2.22;;;8.70;99.90;;;;;;6249362;22;20048;-91
2022/03/17 06:07:10;;;;;;;12.82;2.08;;;8.70;99.90;;;;;;6224863;22;20043;-93
2022/03/17 06:09:38;;;;;;;15.50;2.42;;;8.60;99.90;;;;;;6224931;22;20106;-92
2022/03/17 06:12:08;;;;;;;17.17;2.50;;;8.70;99.90;;;;;;6250242;22;20339;-93
2022/03/17 06:14:35;;;;;;;12.90;2.25;;;8.70;99.90;;;;;;6249874;22;20019;-92
2022/03/17 06:17:03;;;;;;;8.77;2.22;;;8.60;99.90;;;;;;6250661;22;20019;-93
2022/03/17 06:19:31;;;;;;;17.73;1.75;;;8.60;99.90;;;;;;6222006;22;20027;-92
2022/03/17 06:22:00;;;;;;;17.42;2.33;;;8.60;99.90;;;;;;6246138;22;20043;-92
2022/03/17 06:24:38;;;;;;;15.70;1.98;;;8.70;99.90;;;;;;6276651;22;20117;-91
2022/03/17 06:27:05;;;;;;;23.50;2.72;;;8.60;99.90;;;;;;6249022;22;20073;-90
2022/03/17 06:29:34;;;;;;;8.05;1.70;;;8.60;99.90;;;;;;6248503;22;20019;-92
2022/03/17 06:32:01;;;;;;;15.23;2.05;;;8.50;99.90;;;;;;6250578;22;20030;-93
2022/03/17 06:34:29;;;;;;;15.85;3.13;;;8.60;99.90;;;;;;6250771;22;20019;-93
2022/03/17 06:36:56;;;;;;;17.38;2.05;;;8.50;99.90;;;;;;6251204;22;20016;-92
2022/03/17 06:39:23;;;;;;;14.30;2.53;;;8.50;99.90;;;;;;6250219;22;20020;-91
2022/03/17 06:41:50;;;;;;;13.55;1.80;;;8.50;99.90;;;;;;6225054;22;20020;-92
2022/03/17 06:44:17;;;;;;;10.38;1.30;;;8.50;99.90;;;;;;6250620;22;20012;-93
2022/03/17 06:46:44;;;;;;;13.25;1.95;;;8.50;99.90;;;;;;6250403;22;20085;-91
2022/03/17 06:49:11;;;;;;;15.25;1.90;;;8.40;99.90;;;;;;6249676;22;20074;-92
2022/03/17 06:51:38;;;;;;;13.52;2.20;;;8.40;99.90;;;;;;6250107;22;20054;-92
2022/03/17 06:54:05;;;;;;;12.52;2.17;;;8.50;99.90;;;;;;6250030;22;20019;-91
2022/03/17 06:56:32;;;;;;;9.88;1.95;;;8.50;99.90;;;;;;6249935;22;20103;-92
2022/03/17 06:59:00;;;;;;;11.95;2.00;;;8.50;99.90;;;;;;6276644;22;20027;-91
2022/03/17 07:01:27;;;;;;;11.93;2.92;;;8.50;99.90;;;;;;6249734;22;20406;-92
2022/03/17 07:03:54;;;;;;;12.27;2.25;;;8.40;99.90;;;;;;6199574;22;20090;-91
2022/03/17 07:06:21;;;;;;;9.65;2.00;;;8.40;99.90;;;;;;6249865;22;20019;-93
2022/03/17 07:08:48;;;;;;;8.93;2.67;;;8.40;99.90;;;;;;6224355;22;20023;-92
2022/03/17 07:11:16;;;;;;;8.82;1.95;;;8.40;99.90;;;;;;6277003;22;20019;-92
2022/03/17 07:13:43;;;;;;;15.02;2.53;;;8.40;99.90;;;;;;6250942;22;20066;-90
2022/03/17 07:16:10;;;;;;;9.10;2.35;;;8.40;99.90;;;;;;6251422;22;20054;-90
2022/03/17 07:18:37;;;;;;;12.48;1.45;;;8.40;99.90;;;;;;6251897;22;20028;-91
2022/03/17 07:21:04;;;;;;;11.63;2.72;;;8.40;99.90;;;;;;6225928;22;20519;-91
2022/03/17 07:23:32;;;;;;;9.73;1.92;;;8.40;99.90;;;;;;6225998;22;20047;-91
2022/03/17 07:26:02;;;;;;;12.48;2.88;;;8.40;99.90;;;;;;6251559;22;20090;-91
2022/03/17 07:28:28;;;;;;;12.55;2.22;;;8.40;99.90;;;;;;6226312;22;20020;-91
2022/03/17 07:30:55;;;;;;;7.13;1.40;;;8.30;99.90;;;;;;6277937;22;20024;-92
2022/03/17 07:33:22;;;;;;;10.23;3.05;;;8.40;99.90;;;;;;6225367;22;20102;-90
2022/03/17 07:35:49;;;;;;;15.38;2.50;;;8.30;99.90;;;;;;6278381;22;20339;-92
2022/03/17 07:38:16;;;;;;;7.75;1.27;;;8.30;99.90;;;;;;6251264;22;20015;-92
2022/03/17 07:40:45;;;;;;;10.00;2.63;;;8.30;99.90;;;;;;6251529;22;20066;-92
2022/03/17 07:43:12;;;;;;;6.00;2.08;;;8.30;99.90;;;;;;6251062;22;20019;-92
2022/03/17 07:45:56;;;;;;;8.73;1.48;;;8.40;99.90;;;;;;6229250;22;20023;-91
2022/03/17 07:48:41;;;;;;;9.40;1.60;;;8.40;99.90;;;;;;6255422;22;20086;-92
2022/03/17 07:51:16;;;;;;;8.20;1.55;;;8.40;99.90;;;;;;6227195;22;20122;-90
2022/03/17 07:53:44;;;;;;;12.32;1.75;;;8.40;99.90;;;;;;6277560;22;20066;-92
2022/03/17 07:56:12;;;;;;;11.05;1.35;;;8.40;99.90;;;;;;6251565;22;20018;-91
2022/03/17 07:58:39;;;;;;;11.20;1.58;;;8.40;99.90;;;;;;6225629;22;20019;-91
2022/03/17 08:01:06;;;;;;;18.90;2.03;;;8.40;99.90;;;;;;6226163;22;20439;-91
2022/03/17 08:03:33;;;;;;;9.75;1.55;;;8.40;99.90;;;;;;6250617;22;20015;-93
2022/03/17 08:06:01;;;;;;;14.25;2.47;;;8.40;99.90;;;;;;6251040;22;20020;-91
2022/03/17 08:08:28;;;;;;;12.40;2.63;;;8.40;99.90;;;;;;6226382;22;20016;-90
2022/03/17 08:10:57;;;;;;;14.07;2.78;;;8.40;99.90;;;;;;6225594;22;20070;-92
2022/03/17 08:13:25;;;;;;;7.18;1.83;;;8.40;99.90;;;;;;6225361;22;20024;-92
2022/03/17 08:15:52;;;;;;;13.25;2.10;;;8.40;99.90;;;;;;6226074;22;20030;-91
2022/03/17 08:18:20;;;;;;;7.68;1.35;;;8.40;99.90;;;;;;6251566;22;20095;-93
2022/03/17 08:20:47;;;;;;;11.88;1.58;;;8.40;99.90;;;;;;6225324;22;20070;-91
2022/03/17 08:23:21;;;;;;;6.38;1.58;;;8.50;99.90;;;;;;6225219;22;20394;-91
2022/03/17 08:25:49;;;;;;;7.63;1.48;;;8.50;99.90;;;;;;6277252;22;20023;-91
2022/03/17 08:28:19;;;;;;;17.23;1.98;;;8.50;99.90;;;;;;6225751;22;20012;-92
2022/03/17 08:30:48;;;;;;;8.45;1.70;;;8.50;99.90;;;;;;6250584;22;20024;-92
2022/03/17 08:33:17;;;;;;;13.80;1.40;;;8.60;99.90;;;;;;6251401;22;20082;-91
2022/03/17 08:35:45;;;;;;;8.13;1.48;;;8.60;99.90;;;;;;6225399;22;20442;-91
2022/03/17 08:38:12;;;;;;;12.55;2.30;;;8.60;99.90;;;;;;6250780;22;20074;-93
2022/03/17 08:40:41;;;;;;;9.00;2.03;;;8.70;99.90;;;;;;6277898;22;20016;-91
2022/03/17 08:43:11;;;;;;;8.40;1.83;;;8.70;99.90;;;;;;6251083;22;20089;-90
2022/03/17 08:51:12;;;;;;;11.00;1.60;;;8.70;99.90;;;;;;6250372;22;20019;-92
2022/03/17 08:53:39;;;;;;;8.82;1.80;;;8.70;99.90;;;;;;6225272;22;20047;-93
2022/03/17 08:56:06;;;;;;;9.40;2.10;;;8.70;99.90;;;;;;6225180;22;20030;-92
2022/03/17 08:58:35;;;;;;;12.50;2.42;;;8.70;99.90;;;;;;6277467;22;20015;-91
2022/03/17 09:01:02;;;;;;;8.82;1.75;;;8.70;99.90;;;;;;6249887;22;20019;-92
2022/03/17 09:03:30;;;;;;;7.10;1.60;;;8.70;99.90;;;;;;6250451;22;20428;-93
2022/03/17 09:05:59;;;;;;;10.07;1.85;;;8.70;99.90;;;;;;6249971;22;20342;-92
2022/03/17 09:08:27;;;;;;;10.30;2.63;;;8.70;99.90;;;;;;6225302;22;20070;-92
2022/03/17 09:10:56;;;;;;;16.55;3.03;;;8.70;99.90;;;;;;6249685;22;20101;-91
2022/03/17 09:13:27;;;;;;;11.13;1.83;;;8.70;99.90;;;;;;6276882;22;20023;-91
2022/03/17 09:15:55;;;;;;;8.65;1.42;;;8.70;99.90;;;;;;6276833;22;20020;-91
2022/03/17 09:18:22;;;;;;;11.25;1.58;;;8.70;99.90;;;;;;6225604;22;20023;-93
2022/03/17 09:20:50;;;;;;;12.10;2.40;;;8.70;99.90;;;;;;6250972;22;20016;-92
2022/03/17 09:23:18;;;;;;;14.10;2.45;;;8.70;99.90;;;;;;6250075;22;20476;-91
2022/03/17 09:25:45;;;;;;;10.23;1.73;;;8.70;99.90;;;;;;6249670;22;20015;-93
2022/03/17 09:28:13;;;;;;;18.90;3.10;;;8.70;99.90;;;;;;6251173;22;20011;-91
2022/03/17 09:30:40;;;;;;;9.73;1.83;;;8.70;99.90;;;;;;6276795;22;20103;-93
2022/03/17 09:33:07;;;;;;;13.63;1.80;;;8.70;99.90;;;;;;6224602;22;20023;-92
2022/03/17 09:35:35;;;;;;;5.97;2.03;;;8.70;99.90;;;;;;6276630;22;20379;-94
2022/03/17 09:38:05;;;;;;;10.40;2.35;;;8.70;99.90;;;;;;6249933;22;20111;-92
2022/03/17 09:40:34;;;;;;;13.25;2.25;;;8.70;99.90;;;;;;6225047;22;20016;-92
2022/03/17 09:43:19;;;;;;;9.88;1.85;;;8.70;99.90;;;;;;6224651;22;20015;-92
2022/03/17 09:45:50;;;;;;;9.32;2.05;;;8.70;99.90;;;;;;6249294;22;20439;-91
2022/03/17 09:48:18;;;;;;;6.80;1.00;;;8.70;99.90;;;;;;6225070;22;20043;-92
2022/03/17 09:50:46;;;;;;;7.70;1.77;;;8.70;99.90;;;;;;6250100;22;20046;-91
2022/03/17 09:53:14;;;;;;;9.23;1.90;;;8.70;99.90;;;;;;6277361;22;20020;-92
2022/03/17 09:55:43;;;;;;;7.75;1.30;;;8.70;99.90;;;;;;6249985;22;20050;-92
2022/03/17 09:58:11;;;;;;;12.07;3.20;;;8.70;99.90;;;;;;6250496;22;20026;-91
2022/03/17 10:00:52;;;;;;;8.98;1.55;;;8.70;99.90;;;;;;6224705;22;20016;-92
2022/03/17 10:03:25;;;;;;;11.07;3.63;;;8.70;99.90;;;;;;6224923;22;20012;-93
2022/03/17 10:05:57;;;;;;;11.20;1.50;;;8.70;99.90;;;;;;6276981;22;20022;-92
2022/03/17 10:08:25;;;;;;;10.45;1.50;;;8.70;99.90;;;;;;6225020;22;20020;-93
2022/03/17 10:10:52;;;;;;;9.50;2.15;;;8.70;99.90;;;;;;6249302;22;20023;-92
2022/03/17 10:13:22;;;;;;;20.40;1.65;;;8.70;99.90;;;;;;6249725;22;20043;-93
2022/03/17 10:16:09;;;;;;;11.63;2.40;;;8.70;99.90;;;;;;6249664;22;20023;-91
2022/03/17 10:18:38;;;;;;;11.75;1.73;;;8.80;99.90;;;;;;6250327;22;20073;-93
2022/03/17 10:21:17;;;;;;;12.63;2.05;;;8.80;99.90;;;;;;6276340;22;20012;-91
2022/03/17 10:23:59;;;;;;;15.15;1.83;;;8.80;99.90;;;;;;6249699;22;20431;-91
2022/03/17 10:26:35;;;;;;;18.15;1.88;;;8.80;99.90;;;;;;6249494;22;20439;-91
2022/03/17 10:29:13;;;;;;;14.55;2.40;;;8.80;99.90;;;;;;6224834;22;20087;-92
2022/03/17 10:31:58;;;;;;;8.55;2.42;;;8.90;99.90;;;;;;6249474;22;20332;-90
2022/03/17 10:34:49;;;;;;;15.60;1.75;;;8.90;99.90;;;;;;6250145;22;20020;-93
2022/03/17 10:37:18;;;;;;;15.10;1.88;;;8.90;99.90;;;;;;6224611;22;20066;-92
2022/03/17 10:39:48;;;;;;;6.70;1.52;;;9.00;99.90;;;;;;6249656;22;20047;-91
2022/03/17 10:42:18;;;;;;;13.18;2.88;;;9.00;99.90;;;;;;6223961;22;20074;-91
2022/03/17 10:44:48;;;;;;;17.23;3.25;;;8.90;99.90;;;;;;6225178;22;20023;-91
2022/03/17 10:47:46;;;;;;;11.07;1.65;;;8.90;99.90;;;;;;6250348;22;20012;-91
2022/03/17 10:50:19;;;;;;;13.48;1.67;;;8.90;99.90;;;;;;6277153;22;20031;-93
2022/03/17 10:52:47;;;;;;;22.13;3.10;;;9.00;99.90;;;;;;6251130;22;20026;-91
2022/03/17 10:55:18;;;;;;;14.57;1.83;;;9.00;99.90;;;;;;6252155;22;20026;-92
2022/03/17 10:57:45;;;;;;;13.07;3.28;;;9.10;99.90;;;;;;6227092;22;20063;-92
2022/03/17 11:00:22;;;;;;;12.32;1.70;;;9.10;99.90;;;;;;6252034;22;20012;-90
2022/03/17 11:02:51;;;;;;;13.93;1.83;;;9.10;99.90;;;;;;6251009;22;20435;-93
2022/03/17 11:05:19;;;;;;;14.10;1.83;;;9.10;99.90;;;;;;6201655;22;20026;-92
2022/03/17 11:07:47;;;;;;;9.45;1.80;;;9.20;99.90;;;;;;6251341;22;20016;-93
2022/03/17 11:10:16;;;;;;;10.05;2.15;;;9.30;99.90;;;;;;6251964;22;20284;-93
2022/03/17 11:12:43;;;;;;;11.50;1.48;;;9.40;99.90;;;;;;6251027;22;20023;-92
2022/03/17 11:15:10;;;;;;;10.10;1.35;;;9.40;99.90;;;;;;6226584;22;20023;-92
2022/03/17 11:17:49;;;;;;;11.50;2.13;;;9.40;99.90;;;;;;6251377;22;20043;-91
2022/03/17 11:20:20;;;;;;;8.65;2.05;;;9.50;99.90;;;;;;6226334;22;20015;-92
2022/03/17 11:23:22;;;;;;;10.38;2.47;;;9.50;99.90;;;;;;6251076;22;20015;-90
2022/03/17 11:25:57;;;;;;;9.52;2.28;;;9.60;99.90;;;;;;6250991;22;20026;-92
2022/03/17 11:28:40;;;;;;;6.32;1.80;;;9.50;99.90;;;;;;6226212;22;20478;-92
2022/03/17 11:31:09;;;;;;;17.83;2.45;;;9.60;99.90;;;;;;6226326;22;20057;-90
2022/03/17 11:33:39;;;;;;;6.63;1.38;;;9.70;99.90;;;;;;6226211;22;20031;-91
2022/03/17 11:36:09;;;;;;;8.98;1.88;;;9.80;99.90;;;;;;6251248;22;20031;-91
2022/03/17 11:38:43;;;;;;;7.07;1.73;;;9.80;99.90;;;;;;6251144;22;20374;-91
2022/03/17 11:41:26;;;;;;;18.48;2.25;;;9.80;99.90;;;;;;6229883;22;20106;-92
2022/03/17 11:43:53;;;;;;;9.60;1.73;;;9.80;99.90;;;;;;6251445;22;20023;-93
2022/03/17 11:46:23;;;;;;;6.88;2.22;;;9.90;99.90;;;;;;6278070;22;20011;-91
2022/03/17 11:48:55;;;;;;;6.47;2.05;;;9.90;99.90;;;;;;6251751;22;20011;-92
2022/03/17 11:51:25;;;;;;;15.53;1.30;;;9.90;99.90;;;;;;6226606;22;20431;-94
2022/03/17 11:53:53;;;;;;;9.80;1.85;;;10.00;99.90;;;;;;6252356;22;20023;-93
2022/03/17 11:56:32;;;;;;;8.00;1.42;;;10.00;99.90;;;;;;6251533;22;20055;-94
2022/03/17 11:59:00;;;;;;;13.82;2.30;;;10.00;99.90;;;;;;6250578;22;20411;-92
2022/03/17 12:01:34;;;;;;;13.13;2.45;;;10.10;99.90;;;;;;6225680;22;20098;-91
2022/03/17 12:04:04;;;;;;;13.43;1.90;;;10.20;99.90;;;;;;6251225;22;20027;-92
2022/03/17 12:06:37;;;;;;;10.38;2.08;;;10.20;99.90;;;;;;6251844;22;20012;-93
2022/03/17 12:09:04;;;;;;;11.57;2.35;;;10.30;99.90;;;;;;6251987;22;20024;-93
2022/03/17 12:11:36;;;;;;;7.18;2.15;;;10.40;99.90;;;;;;6251417;22;20024;-93
2022/03/17 12:14:18;;;;;;;15.32;1.88;;;10.40;99.90;;;;;;6251682;22;20023;-91
2022/03/17 12:17:11;;;;;;;13.57;1.85;;;10.40;99.90;;;;;;6251045;22;20023;-92
2022/03/17 12:19:43;;;;;;;11.75;1.65;;;10.50;99.90;;;;;;6251689;22;20016;-93
2022/03/17 12:22:15;;;;;;;16.92;2.25;;;10.50;99.90;;;;;;6250485;22;20047;-93
2022/03/17 12:24:53;;;;;;;6.88;2.08;;;10.60;99.90;;;;;;6225867;22;20066;-92
2022/03/17 12:27:33;;;;;;;11.25;2.28;;;10.60;99.90;;;;;;6277722;22;20015;-93
2022/03/17 12:30:06;;;;;;;8.23;3.63;;;10.70;99.90;;;;;;6251696;22;20342;-93
2022/03/17 12:32:39;;;;;;;4.85;1.13;;;10.70;99.90;;;;;;6225832;22;20058;-93
2022/03/17 12:35:12;;;;;;;9.40;1.38;;;10.80;99.90;;;;;;6225956;22;20020;-92
2022/03/17 12:37:41;;;;;;;7.03;1.67;;;10.80;99.90;;;;;;6278958;22;20018;-92
2022/03/17 12:40:20;;;;;;;7.85;2.13;;;10.90;99.90;;;;;;6251094;22;20336;-92
2022/03/17 12:42:53;;;;;;;11.70;2.58;;;11.00;99.90;;;;;;6251301;22;20023;-90
2022/03/17 12:45:25;;;;;;;19.40;2.50;;;11.00;99.90;;;;;;6226580;22;20078;-92
2022/03/17 12:47:59;;;;;;;11.00;1.98;;;11.00;99.90;;;;;;6277410;22;20020;-93
2022/03/17 12:50:30;;;;;;;9.95;1.63;;;11.10;99.90;;;;;;6226826;22;20020;-90
2022/03/17 12:52:57;;;;;;;6.95;1.75;;;11.10;99.90;;;;;;6225751;22;20019;-91
2022/03/17 12:55:26;;;;;;;13.00;2.35;;;11.20;99.90;;;;;;6278024;22;20023;-92
2022/03/17 12:57:55;;;;;;;8.30;1.83;;;11.30;99.90;;;;;;6250823;22;20023;-92
2022/03/17 13:00:23;;;;;;;9.35;1.55;;;11.30;99.90;;;;;;6251075;22;20012;-94
2022/03/17 13:02:54;;;;;;;10.23;1.55;;;11.40;99.90;;;;;;6200587;22;20026;-92
2022/03/17 13:08:11;;;;;;;4.25;1.40;;;11.30;99.90;;;;;;6250978;22;20065;-92
2022/03/17 13:16:13;;;;;;;9.68;2.40;;;11.50;99.90;;;;;;6277946;22;20023;-93
2022/03/17 13:18:50;;;;;;;10.13;1.95;;;11.60;99.90;;;;;;6225545;22;20015;-92
2022/03/17 13:21:20;;;;;;;13.70;1.33;;;11.60;99.90;;;;;;6250582;22;20012;-91
2022/03/17 13:23:49;;;;;;;10.82;1.95;;;11.60;99.90;;;;;;6250956;22;20024;-90
2022/03/17 13:26:28;;;;;;;10.02;1.90;;;11.60;99.90;;;;;;6250350;22;20023;-91